Hartford, Connecticut
Traffic Map
Current Weather Conditions
Hartford, Connecticut
Few Clouds
Few Clouds
-1°
Feels Like: -5°
Wind Chill: -5° Ceiling: Unl
Heat Index: -1° Visibility: 10mi
Dew Point: -6° Wind: 8mph
Humidity: 67% Direction: 290° (WNW)
Pressure: 30.1in Gusts: 18mph
Raw Report DataKHFD 281253Z 29007G16KT 10SM FEW049 M01/M06 A3010 RMK AO2 SLP192 T10061061
Traffic Incident Summary
Active as of:
Severity:
Category:
InformationThere was an issue retrieving the traffic information for this location. Please try a different location or try again shortly.
Advertisements
Track Severe Weather on mobile